sensor_id;sensor_type;location;lat;lon;timestamp;pressure;altitude;pressure_sealevel;temperature;humidity
26087;BME280;13851;43.434;28.338;2022-11-15T00:00:24;100687.28;;;10.00;100.00
26087;BME280;13851;43.434;28.338;2022-11-15T00:02:52;100705.53;;;10.09;100.00
26087;BME280;13851;43.434;28.338;2022-11-15T00:05:17;100717.47;;;10.08;100.00
26087;BME280;13851;43.434;28.338;2022-11-15T00:07:43;100692.69;;;10.09;100.00
26087;BME280;13851;43.434;28.338;2022-11-15T00:10:08;100703.25;;;10.04;100.00
26087;BME280;13851;43.434;28.338;2022-11-15T00:12:34;100701.53;;;10.03;100.00
26087;BME280;13851;43.434;28.338;2022-11-15T00:15:00;100594.94;;;9.40;100.00
26087;BME280;13851;43.434;28.338;2022-11-15T00:17:25;100710.44;;;9.87;100.00
26087;BME280;13851;43.434;28.338;2022-11-15T00:19:51;100734.31;;;9.95;100.00
26087;BME280;13851;43.434;28.338;2022-11-15T00:22:16;100531.72;;;8.90;100.00
26087;BME280;13851;43.434;28.338;2022-11-15T00:24:41;100546.56;;;9.05;100.00
26087;BME280;13851;43.434;28.338;2022-11-15T00:27:07;100697.44;;;10.07;100.00
26087;BME280;13851;43.434;28.338;2022-11-15T00:29:33;100375.34;;;8.06;100.00
26087;BME280;13851;43.434;28.338;2022-11-15T00:31:58;100684.88;;;9.97;100.00
26087;BME280;13851;43.434;28.338;2022-11-15T00:34:26;100492.31;;;8.74;100.00
26087;BME280;13851;43.434;28.338;2022-11-15T00:36:51;100695.91;;;10.05;100.00
26087;BME280;13851;43.434;28.338;2022-11-15T00:39:17;100689.56;;;10.04;100.00
26087;BME280;13851;43.434;28.338;2022-11-15T00:41:42;100686.97;;;10.03;100.00
26087;BME280;13851;43.434;28.338;2022-11-15T00:44:08;100522.31;;;9.02;100.00
26087;BME280;13851;43.434;28.338;2022-11-15T00:46:33;100689.69;;;10.03;100.00
26087;BME280;13851;43.434;28.338;2022-11-15T00:48:59;100625.31;;;9.55;100.00
26087;BME280;13851;43.434;28.338;2022-11-15T00:51:24;100695.84;;;9.79;100.00
26087;BME280;13851;43.434;28.338;2022-11-15T00:53:50;100682.16;;;9.79;100.00
26087;BME280;13851;43.434;28.338;2022-11-15T00:56:15;100692.38;;;9.95;100.00
26087;BME280;13851;43.434;28.338;2022-11-15T00:58:41;100678.63;;;9.86;100.00
26087;BME280;13851;43.434;28.338;2022-11-15T01:01:09;100673.88;;;9.88;100.00
26087;BME280;13851;43.434;28.338;2022-11-15T01:03:36;100645.34;;;9.73;100.00
26087;BME280;13851;43.434;28.338;2022-11-15T01:06:01;100506.16;;;8.91;100.00
26087;BME280;13851;43.434;28.338;2022-11-15T01:08:27;100511.78;;;9.07;100.00
26087;BME280;13851;43.434;28.338;2022-11-15T01:10:53;100664.44;;;10.09;100.00
26087;BME280;13851;43.434;28.338;2022-11-15T01:13:18;100642.00;;;9.87;100.00
26087;BME280;13851;43.434;28.338;2022-11-15T01:15:44;100684.59;;;10.08;100.00
26087;BME280;13851;43.434;28.338;2022-11-15T01:18:09;100661.94;;;9.98;100.00
26087;BME280;13851;43.434;28.338;2022-11-15T01:20:42;100671.47;;;10.11;100.00
26087;BME280;13851;43.434;28.338;2022-11-15T01:23:08;100663.63;;;10.16;100.00
26087;BME280;13851;43.434;28.338;2022-11-15T01:25:33;100667.94;;;10.19;100.00
26087;BME280;13851;43.434;28.338;2022-11-15T01:27:59;100672.50;;;10.10;100.00
26087;BME280;13851;43.434;28.338;2022-11-15T01:30:24;100679.16;;;10.26;100.00
26087;BME280;13851;43.434;28.338;2022-11-15T01:32:50;100629.47;;;10.03;100.00
26087;BME280;13851;43.434;28.338;2022-11-15T01:35:15;100651.84;;;10.16;100.00
26087;BME280;13851;43.434;28.338;2022-11-15T01:37:41;100639.53;;;10.20;100.00
26087;BME280;13851;43.434;28.338;2022-11-15T01:40:07;100665.38;;;10.44;100.00
26087;BME280;13851;43.434;28.338;2022-11-15T01:42:32;100659.41;;;10.22;100.00
26087;BME280;13851;43.434;28.338;2022-11-15T01:44:58;100664.44;;;10.27;100.00
26087;BME280;13851;43.434;28.338;2022-11-15T01:47:28;100645.91;;;10.03;100.00
26087;BME280;13851;43.434;28.338;2022-11-15T01:52:25;100677.81;;;10.12;100.00
26087;BME280;13851;43.434;28.338;2022-11-15T01:55:05;100667.19;;;10.09;100.00
26087;BME280;13851;43.434;28.338;2022-11-15T01:57:33;100649.63;;;9.94;100.00
26087;BME280;13851;43.434;28.338;2022-11-15T02:00:00;100680.16;;;10.07;100.00
26087;BME280;13851;43.434;28.338;2022-11-15T02:02:27;100642.75;;;9.89;100.00
26087;BME280;13851;43.434;28.338;2022-11-15T02:04:53;100659.84;;;10.09;100.00
26087;BME280;13851;43.434;28.338;2022-11-15T02:07:20;100643.50;;;10.00;100.00
26087;BME280;13851;43.434;28.338;2022-11-15T02:09:46;100640.56;;;9.93;100.00
26087;BME280;13851;43.434;28.338;2022-11-15T02:12:17;100646.25;;;10.00;100.00
26087;BME280;13851;43.434;28.338;2022-11-15T02:14:44;100656.34;;;9.99;100.00
26087;BME280;13851;43.434;28.338;2022-11-15T02:17:48;100578.16;;;9.53;100.00
26087;BME280;13851;43.434;28.338;2022-11-15T02:34:26;100653.38;;;9.75;100.00
26087;BME280;13851;43.434;28.338;2022-11-15T02:42:02;100646.75;;;9.59;100.00
26087;BME280;13851;43.434;28.338;2022-11-15T02:44:33;100644.47;;;9.73;100.00
26087;BME280;13851;43.434;28.338;2022-11-15T02:47:07;100649.44;;;9.77;100.00
26087;BME280;13851;43.434;28.338;2022-11-15T02:49:42;100642.34;;;9.84;100.00
26087;BME280;13851;43.434;28.338;2022-11-15T02:52:08;100609.69;;;9.65;100.00
26087;BME280;13851;43.434;28.338;2022-11-15T02:54:35;100474.44;;;8.98;100.00
26087;BME280;13851;43.434;28.338;2022-11-15T02:57:07;100631.97;;;9.88;100.00
26087;BME280;13851;43.434;28.338;2022-11-15T03:00:22;100665.66;;;9.88;100.00
26087;BME280;13851;43.434;28.338;2022-11-15T03:02:36;100630.59;;;9.92;100.00
26087;BME280;13851;43.434;28.338;2022-11-15T03:05:19;100633.94;;;9.78;100.00
26087;BME280;13851;43.434;28.338;2022-11-15T03:10:42;100480.38;;;8.93;100.00
26087;BME280;13851;43.434;28.338;2022-11-15T03:18:47;100426.91;;;8.55;100.00
26087;BME280;13851;43.434;28.338;2022-11-15T03:21:15;100656.81;;;9.77;100.00
26087;BME280;13851;43.434;28.338;2022-11-15T03:23:43;100607.03;;;9.73;100.00
26087;BME280;13851;43.434;28.338;2022-11-15T03:26:12;100614.78;;;9.78;100.00
26087;BME280;13851;43.434;28.338;2022-11-15T03:28:57;100462.34;;;8.82;100.00
26087;BME280;13851;43.434;28.338;2022-11-15T03:31:29;100607.56;;;9.77;100.00
26087;BME280;13851;43.434;28.338;2022-11-15T03:34:20;100604.50;;;9.80;100.00
26087;BME280;13851;43.434;28.338;2022-11-15T03:36:50;100426.06;;;8.72;100.00
26087;BME280;13851;43.434;28.338;2022-11-15T03:39:16;100593.88;;;9.77;100.00
26087;BME280;13851;43.434;28.338;2022-11-15T03:44:59;100600.84;;;9.89;100.00
26087;BME280;13851;43.434;28.338;2022-11-15T03:47:34;100609.50;;;9.84;100.00
26087;BME280;13851;43.434;28.338;2022-11-15T03:50:11;100576.59;;;9.76;100.00
26087;BME280;13851;43.434;28.338;2022-11-15T03:52:39;100573.88;;;9.76;100.00
26087;BME280;13851;43.434;28.338;2022-11-15T03:55:09;100554.97;;;9.65;100.00
26087;BME280;13851;43.434;28.338;2022-11-15T03:57:35;100605.38;;;9.80;100.00
26087;BME280;13851;43.434;28.338;2022-11-15T04:00:02;100568.47;;;9.84;100.00
26087;BME280;13851;43.434;28.338;2022-11-15T04:02:27;100528.25;;;9.59;100.00
26087;BME280;13851;43.434;28.338;2022-11-15T04:04:53;100571.50;;;9.81;100.00
26087;BME280;13851;43.434;28.338;2022-11-15T04:07:18;100478.63;;;9.10;100.00
26087;BME280;13851;43.434;28.338;2022-11-15T04:09:44;100582.91;;;9.95;100.00
26087;BME280;13851;43.434;28.338;2022-11-15T04:12:32;100591.69;;;9.80;100.00
26087;BME280;13851;43.434;28.338;2022-11-15T04:14:59;100563.00;;;9.84;100.00
26087;BME280;13851;43.434;28.338;2022-11-15T04:17:41;100596.41;;;9.96;100.00
26087;BME280;13851;43.434;28.338;2022-11-15T04:20:22;100569.91;;;9.97;100.00
26087;BME280;13851;43.434;28.338;2022-11-15T04:23:12;100581.19;;;9.94;100.00
26087;BME280;13851;43.434;28.338;2022-11-15T04:26:03;100581.94;;;10.04;100.00
26087;BME280;13851;43.434;28.338;2022-11-15T04:28:29;100581.47;;;10.08;100.00
26087;BME280;13851;43.434;28.338;2022-11-15T04:30:55;100546.41;;;9.86;100.00
26087;BME280;13851;43.434;28.338;2022-11-15T04:33:21;100562.56;;;9.97;100.00
26087;BME280;13851;43.434;28.338;2022-11-15T04:35:49;100549.47;;;9.83;100.00
26087;BME280;13851;43.434;28.338;2022-11-15T04:38:34;100580.94;;;9.87;100.00
26087;BME280;13851;43.434;28.338;2022-11-15T04:41:00;100404.25;;;8.98;100.00
26087;BME280;13851;43.434;28.338;2022-11-15T04:43:26;100452.06;;;9.20;100.00
26087;BME280;13851;43.434;28.338;2022-11-15T04:45:51;100458.72;;;9.18;100.00
26087;BME280;13851;43.434;28.338;2022-11-15T04:48:17;100580.75;;;10.32;100.00
26087;BME280;13851;43.434;28.338;2022-11-15T04:50:42;100590.81;;;10.58;100.00
26087;BME280;13851;43.434;28.338;2022-11-15T04:53:08;100578.22;;;10.73;100.00
26087;BME280;13851;43.434;28.338;2022-11-15T04:55:36;100575.16;;;10.84;100.00
26087;BME280;13851;43.434;28.338;2022-11-15T04:58:02;100573.59;;;10.74;100.00
26087;BME280;13851;43.434;28.338;2022-11-15T05:00:28;100533.03;;;10.85;100.00
26087;BME280;13851;43.434;28.338;2022-11-15T05:02:55;100568.72;;;11.10;100.00
26087;BME280;13851;43.434;28.338;2022-11-15T05:05:39;100572.34;;;11.18;100.00
26087;BME280;13851;43.434;28.338;2022-11-15T05:08:05;100564.28;;;11.25;100.00
26087;BME280;13851;43.434;28.338;2022-11-15T05:10:30;100561.22;;;11.28;100.00
26087;BME280;13851;43.434;28.338;2022-11-15T05:12:56;100567.56;;;11.45;100.00
26087;BME280;13851;43.434;28.338;2022-11-15T05:15:24;100564.16;;;11.59;100.00
26087;BME280;13851;43.434;28.338;2022-11-15T05:17:50;100540.31;;;11.68;100.00
26087;BME280;13851;43.434;28.338;2022-11-15T05:20:15;100549.03;;;11.80;100.00
26087;BME280;13851;43.434;28.338;2022-11-15T05:22:43;100567.09;;;11.99;100.00
26087;BME280;13851;43.434;28.338;2022-11-15T05:25:08;100531.38;;;11.90;100.00
26087;BME280;13851;43.434;28.338;2022-11-15T05:27:34;100389.31;;;10.96;100.00
26087;BME280;13851;43.434;28.338;2022-11-15T05:30:00;100559.34;;;11.86;100.00
26087;BME280;13851;43.434;28.338;2022-11-15T05:32:28;100560.91;;;11.72;100.00
26087;BME280;13851;43.434;28.338;2022-11-15T05:34:54;100564.66;;;11.55;100.00
26087;BME280;13851;43.434;28.338;2022-11-15T05:37:20;100591.22;;;11.46;100.00
26087;BME280;13851;43.434;28.338;2022-11-15T05:39:46;100570.16;;;11.38;100.00
26087;BME280;13851;43.434;28.338;2022-11-15T05:42:13;100541.16;;;11.11;100.00
26087;BME280;13851;43.434;28.338;2022-11-15T05:44:43;100541.66;;;11.07;100.00
26087;BME280;13851;43.434;28.338;2022-11-15T05:47:15;100499.06;;;10.62;100.00
26087;BME280;13851;43.434;28.338;2022-11-15T05:49:43;100552.91;;;10.87;100.00
26087;BME280;13851;43.434;28.338;2022-11-15T05:52:11;100523.03;;;10.60;100.00
26087;BME280;13851;43.434;28.338;2022-11-15T05:54:38;100555.63;;;10.79;100.00
26087;BME280;13851;43.434;28.338;2022-11-15T05:57:04;100566.22;;;10.74;100.00
26087;BME280;13851;43.434;28.338;2022-11-15T05:59:30;100562.75;;;10.64;100.00
26087;BME280;13851;43.434;28.338;2022-11-15T06:01:57;100545.91;;;10.43;100.00
26087;BME280;13851;43.434;28.338;2022-11-15T06:04:23;100544.00;;;10.43;100.00
26087;BME280;13851;43.434;28.338;2022-11-15T06:06:48;100554.31;;;10.49;100.00
26087;BME280;13851;43.434;28.338;2022-11-15T06:09:14;100563.03;;;10.45;100.00
26087;BME280;13851;43.434;28.338;2022-11-15T06:11:39;100549.66;;;10.41;100.00
26087;BME280;13851;43.434;28.338;2022-11-15T06:14:05;100578.84;;;10.59;100.00
26087;BME280;13851;43.434;28.338;2022-11-15T06:16:30;100546.59;;;10.45;100.00
26087;BME280;13851;43.434;28.338;2022-11-15T06:18:56;100547.47;;;10.45;100.00
26087;BME280;13851;43.434;28.338;2022-11-15T06:21:22;100578.16;;;10.57;100.00
26087;BME280;13851;43.434;28.338;2022-11-15T06:23:47;100575.09;;;10.60;100.00
26087;BME280;13851;43.434;28.338;2022-11-15T06:26:13;100383.88;;;9.45;100.00
26087;BME280;13851;43.434;28.338;2022-11-15T06:28:38;100586.41;;;10.65;100.00
26087;BME280;13851;43.434;28.338;2022-11-15T06:31:11;100597.88;;;10.68;100.00
26087;BME280;13851;43.434;28.338;2022-11-15T06:33:37;100444.13;;;9.87;100.00
26087;BME280;13851;43.434;28.338;2022-11-15T06:36:06;100523.13;;;10.34;100.00
26087;BME280;13851;43.434;28.338;2022-11-15T06:38:33;100458.22;;;10.00;100.00
26087;BME280;13851;43.434;28.338;2022-11-15T06:41:08;100553.31;;;10.58;100.00
26087;BME280;13851;43.434;28.338;2022-11-15T06:43:34;100553.50;;;10.57;100.00
26087;BME280;13851;43.434;28.338;2022-11-15T06:46:01;100573.41;;;10.67;100.00
26087;BME280;13851;43.434;28.338;2022-11-15T06:48:28;100538.22;;;10.46;100.00
26087;BME280;13851;43.434;28.338;2022-11-15T06:50:59;100538.09;;;10.56;100.00
26087;BME280;13851;43.434;28.338;2022-11-15T06:53:25;100563.34;;;10.76;100.00
26087;BME280;13851;43.434;28.338;2022-11-15T06:55:51;100569.00;;;10.82;100.00
26087;BME280;13851;43.434;28.338;2022-11-15T06:58:17;100581.00;;;10.81;100.00
26087;BME280;13851;43.434;28.338;2022-11-15T07:00:42;100543.63;;;10.72;100.00
26087;BME280;13851;43.434;28.338;2022-11-15T07:03:08;100538.47;;;10.69;100.00
26087;BME280;13851;43.434;28.338;2022-11-15T07:05:34;100567.97;;;10.83;100.00
26087;BME280;13851;43.434;28.338;2022-11-15T07:08:00;100569.69;;;10.84;100.00
26087;BME280;13851;43.434;28.338;2022-11-15T07:10:26;100557.00;;;10.83;100.00
26087;BME280;13851;43.434;28.338;2022-11-15T07:12:52;100541.56;;;10.74;100.00
26087;BME280;13851;43.434;28.338;2022-11-15T07:15:21;100369.19;;;9.80;100.00
26087;BME280;13851;43.434;28.338;2022-11-15T07:17:47;100564.91;;;10.86;100.00
26087;BME280;13851;43.434;28.338;2022-11-15T07:20:13;100568.72;;;11.02;100.00
26087;BME280;13851;43.434;28.338;2022-11-15T07:22:39;100565.97;;;11.02;100.00
26087;BME280;13851;43.434;28.338;2022-11-15T07:25:05;100557.25;;;11.06;100.00
26087;BME280;13851;43.434;28.338;2022-11-15T07:27:31;100565.44;;;10.98;100.00
26087;BME280;13851;43.434;28.338;2022-11-15T07:29:57;100543.88;;;11.03;100.00
26087;BME280;13851;43.434;28.338;2022-11-15T07:32:22;100517.09;;;10.89;100.00
26087;BME280;13851;43.434;28.338;2022-11-15T07:34:48;100560.53;;;11.26;100.00
26087;BME280;13851;43.434;28.338;2022-11-15T07:37:13;100471.88;;;10.85;100.00
26087;BME280;13851;43.434;28.338;2022-11-15T07:39:39;100541.81;;;11.13;100.00
26087;BME280;13851;43.434;28.338;2022-11-15T07:42:05;100536.03;;;11.16;100.00
26087;BME280;13851;43.434;28.338;2022-11-15T07:44:48;100548.53;;;11.35;100.00
26087;BME280;13851;43.434;28.338;2022-11-15T07:47:14;100357.53;;;10.20;100.00
26087;BME280;13851;43.434;28.338;2022-11-15T07:49:40;100542.34;;;11.17;100.00
26087;BME280;13851;43.434;28.338;2022-11-15T07:52:05;100483.19;;;10.98;100.00
26087;BME280;13851;43.434;28.338;2022-11-15T07:54:31;100544.06;;;11.34;100.00
26087;BME280;13851;43.434;28.338;2022-11-15T07:56:56;100356.63;;;10.11;100.00
26087;BME280;13851;43.434;28.338;2022-11-15T07:59:22;100355.34;;;10.24;100.00
26087;BME280;13851;43.434;28.338;2022-11-15T08:01:47;100546.66;;;11.52;100.00
26087;BME280;13851;43.434;28.338;2022-11-15T08:04:13;100525.91;;;11.33;100.00
26087;BME280;13851;43.434;28.338;2022-11-15T08:06:38;100550.59;;;11.50;100.00
26087;BME280;13851;43.434;28.338;2022-11-15T08:09:04;100552.66;;;11.56;100.00
26087;BME280;13851;43.434;28.338;2022-11-15T08:11:30;100572.19;;;11.61;100.00
26087;BME280;13851;43.434;28.338;2022-11-15T08:13:55;100540.13;;;11.61;100.00
26087;BME280;13851;43.434;28.338;2022-11-15T08:16:21;100555.38;;;11.80;100.00
26087;BME280;13851;43.434;28.338;2022-11-15T08:18:47;100316.50;;;10.53;100.00
26087;BME280;13851;43.434;28.338;2022-11-15T08:21:15;100545.09;;;11.82;100.00
26087;BME280;13851;43.434;28.338;2022-11-15T08:23:45;100360.34;;;10.77;100.00
26087;BME280;13851;43.434;28.338;2022-11-15T08:26:11;100531.56;;;11.89;100.00
26087;BME280;13851;43.434;28.338;2022-11-15T08:28:37;100552.13;;;12.01;100.00
26087;BME280;13851;43.434;28.338;2022-11-15T08:31:03;100371.34;;;10.85;100.00
26087;BME280;13851;43.434;28.338;2022-11-15T08:33:30;100550.22;;;12.02;100.00
26087;BME280;13851;43.434;28.338;2022-11-15T08:36:02;100528.97;;;12.04;100.00
26087;BME280;13851;43.434;28.338;2022-11-15T08:38:28;100528.13;;;12.03;100.00
26087;BME280;13851;43.434;28.338;2022-11-15T08:41:04;100353.34;;;10.91;100.00
26087;BME280;13851;43.434;28.338;2022-11-15T08:43:29;100526.22;;;11.95;100.00
26087;BME280;13851;43.434;28.338;2022-11-15T08:45:56;100509.75;;;11.95;100.00
26087;BME280;13851;43.434;28.338;2022-11-15T08:48:22;100530.63;;;12.13;100.00
26087;BME280;13851;43.434;28.338;2022-11-15T08:50:48;100513.50;;;12.11;100.00
26087;BME280;13851;43.434;28.338;2022-11-15T08:53:14;100533.88;;;12.25;100.00
26087;BME280;13851;43.434;28.338;2022-11-15T08:55:40;100529.91;;;12.27;100.00
26087;BME280;13851;43.434;28.338;2022-11-15T08:58:06;100329.47;;;11.24;100.00
26087;BME280;13851;43.434;28.338;2022-11-15T09:00:32;100517.16;;;12.42;100.00
26087;BME280;13851;43.434;28.338;2022-11-15T09:02:58;100489.75;;;12.26;100.00
26087;BME280;13851;43.434;28.338;2022-11-15T09:05:24;100521.91;;;12.57;100.00
26087;BME280;13851;43.434;28.338;2022-11-15T09:07:53;100524.78;;;12.63;100.00
26087;BME280;13851;43.434;28.338;2022-11-15T09:10:20;100527.72;;;12.62;100.00
26087;BME280;13851;43.434;28.338;2022-11-15T09:12:45;100513.03;;;12.78;100.00
26087;BME280;13851;43.434;28.338;2022-11-15T09:15:16;100508.69;;;12.83;100.00
26087;BME280;13851;43.434;28.338;2022-11-15T09:17:42;100300.72;;;11.59;100.00
26087;BME280;13851;43.434;28.338;2022-11-15T09:20:08;100501.81;;;12.87;100.00
26087;BME280;13851;43.434;28.338;2022-11-15T09:22:34;100458.16;;;12.61;100.00
26087;BME280;13851;43.434;28.338;2022-11-15T09:25:02;100491.78;;;12.63;100.00
26087;BME280;13851;43.434;28.338;2022-11-15T09:27:28;100500.31;;;12.77;100.00
26087;BME280;13851;43.434;28.338;2022-11-15T09:29:54;100492.81;;;12.93;100.00
26087;BME280;13851;43.434;28.338;2022-11-15T09:35:41;100450.88;;;12.68;100.00
26087;BME280;13851;43.434;28.338;2022-11-15T09:38:07;100301.66;;;12.14;100.00
26087;BME280;13851;43.434;28.338;2022-11-15T09:40:36;100477.94;;;13.11;100.00
26087;BME280;13851;43.434;28.338;2022-11-15T09:43:23;100457.25;;;13.15;100.00
26087;BME280;13851;43.434;28.338;2022-11-15T09:56:36;100459.94;;;13.46;100.00
26087;BME280;13851;43.434;28.338;2022-11-15T10:04:11;100442.78;;;13.59;100.00
26087;BME280;13851;43.434;28.338;2022-11-15T10:06:43;100453.63;;;13.75;100.00
26087;BME280;13851;43.434;28.338;2022-11-15T10:09:27;100447.63;;;13.71;100.00
26087;BME280;13851;43.434;28.338;2022-11-15T10:11:56;100444.31;;;13.76;100.00
26087;BME280;13851;43.434;28.338;2022-11-15T10:14:24;100409.84;;;13.65;100.00
26087;BME280;13851;43.434;28.338;2022-11-15T10:17:13;100447.47;;;13.88;100.00
26087;BME280;13851;43.434;28.338;2022-11-15T10:22:24;100399.97;;;13.56;100.00
26087;BME280;13851;43.434;28.338;2022-11-15T10:25:00;100427.78;;;13.76;100.00
26087;BME280;13851;43.434;28.338;2022-11-15T10:27:31;100429.72;;;13.90;100.00
26087;BME280;13851;43.434;28.338;2022-11-15T10:29:57;100394.94;;;13.74;100.00
26087;BME280;13851;43.434;28.338;2022-11-15T10:32:22;100337.69;;;13.40;100.00
26087;BME280;13851;43.434;28.338;2022-11-15T10:34:49;100405.97;;;13.89;100.00
26087;BME280;13851;43.434;28.338;2022-11-15T10:37:27;100421.06;;;14.08;100.00
26087;BME280;13851;43.434;28.338;2022-11-15T10:42:40;100384.88;;;13.96;100.00
26087;BME280;13851;43.434;28.338;2022-11-15T10:45:24;100419.44;;;14.28;100.00
26087;BME280;13851;43.434;28.338;2022-11-15T10:47:50;100386.25;;;14.22;100.00
26087;BME280;13851;43.434;28.338;2022-11-15T10:50:30;100397.53;;;14.42;100.00
26087;BME280;13851;43.434;28.338;2022-11-15T10:52:56;100380.72;;;14.37;100.00
26087;BME280;13851;43.434;28.338;2022-11-15T10:55:27;100391.81;;;14.43;100.00
26087;BME280;13851;43.434;28.338;2022-11-15T10:58:01;100407.03;;;14.39;100.00
26087;BME280;13851;43.434;28.338;2022-11-15T11:00:37;100390.81;;;14.29;100.00
26087;BME280;13851;43.434;28.338;2022-11-15T11:03:11;100362.44;;;14.14;100.00
26087;BME280;13851;43.434;28.338;2022-11-15T11:05:48;100346.84;;;14.07;100.00
26087;BME280;13851;43.434;28.338;2022-11-15T11:10:39;100375.47;;;14.05;100.00
26087;BME280;13851;43.434;28.338;2022-11-15T11:13:28;100367.59;;;14.02;100.00
26087;BME280;13851;43.434;28.338;2022-11-15T11:21:18;100291.19;;;13.60;100.00
26087;BME280;13851;43.434;28.338;2022-11-15T11:24:04;100206.28;;;13.42;100.00
26087;BME280;13851;43.434;28.338;2022-11-15T11:26:46;100330.88;;;14.17;100.00
26087;BME280;13851;43.434;28.338;2022-11-15T11:32:19;100352.19;;;14.08;100.00
26087;BME280;13851;43.434;28.338;2022-11-15T11:35:03;100339.28;;;13.94;100.00
26087;BME280;13851;43.434;28.338;2022-11-15T11:37:43;100354.41;;;13.83;100.00
26087;BME280;13851;43.434;28.338;2022-11-15T11:43:26;100337.91;;;13.68;100.00
26087;BME280;13851;43.434;28.338;2022-11-15T11:46:19;100342.56;;;13.68;100.00
26087;BME280;13851;43.434;28.338;2022-11-15T11:48:58;100150.88;;;12.57;100.00
26087;BME280;13851;43.434;28.338;2022-11-15T11:51:39;100313.13;;;13.53;100.00
26087;BME280;13851;43.434;28.338;2022-11-15T11:54:31;100376.72;;;13.73;100.00
26087;BME280;13851;43.434;28.338;2022-11-15T11:57:02;100307.41;;;13.70;100.00
26087;BME280;13851;43.434;28.338;2022-11-15T12:02:14;100315.44;;;13.86;100.00
26087;BME280;13851;43.434;28.338;2022-11-15T12:04:46;100292.78;;;13.84;100.00
26087;BME280;13851;43.434;28.338;2022-11-15T12:07:33;100295.53;;;13.84;100.00
26087;BME280;13851;43.434;28.338;2022-11-15T12:10:26;100334.03;;;14.14;100.00
26087;BME280;13851;43.434;28.338;2022-11-15T12:13:13;100310.56;;;14.18;100.00
26087;BME280;13851;43.434;28.338;2022-11-15T12:16:11;100305.66;;;14.35;100.00
26087;BME280;13851;43.434;28.338;2022-11-15T12:18:38;100300.56;;;14.38;100.00
26087;BME280;13851;43.434;28.338;2022-11-15T12:21:08;100168.44;;;13.66;100.00
26087;BME280;13851;43.434;28.338;2022-11-15T12:23:44;100308.38;;;14.49;100.00
26087;BME280;13851;43.434;28.338;2022-11-15T12:26:23;100264.94;;;14.37;100.00
26087;BME280;13851;43.434;28.338;2022-11-15T12:28:59;100291.28;;;14.39;100.00
26087;BME280;13851;43.434;28.338;2022-11-15T12:31:41;100315.50;;;14.44;100.00
26087;BME280;13851;43.434;28.338;2022-11-15T12:36:49;100248.81;;;14.34;100.00
26087;BME280;13851;43.434;28.338;2022-11-15T12:39:16;100279.44;;;14.60;100.00
26087;BME280;13851;43.434;28.338;2022-11-15T12:52:05;100268.19;;;14.40;100.00
26087;BME280;13851;43.434;28.338;2022-11-15T13:02:40;100243.22;;;14.27;100.00
26087;BME280;13851;43.434;28.338;2022-11-15T13:10:32;100256.88;;;14.35;100.00
26087;BME280;13851;43.434;28.338;2022-11-15T13:12:59;100252.56;;;14.26;100.00
26087;BME280;13851;43.434;28.338;2022-11-15T13:15:51;100127.72;;;13.61;100.00
26087;BME280;13851;43.434;28.338;2022-11-15T13:18:39;100218.84;;;14.24;100.00
26087;BME280;13851;43.434;28.338;2022-11-15T13:21:19;100248.47;;;14.43;100.00
26087;BME280;13851;43.434;28.338;2022-11-15T13:24:04;100123.88;;;13.77;100.00
26087;BME280;13851;43.434;28.338;2022-11-15T13:26:30;100237.34;;;14.30;100.00
26087;BME280;13851;43.434;28.338;2022-11-15T13:28:56;100017.03;;;13.23;100.00
26087;BME280;13851;43.434;28.338;2022-11-15T13:31:34;100234.59;;;14.51;100.00
26087;BME280;13851;43.434;28.338;2022-11-15T13:34:14;100213.31;;;14.45;100.00
26087;BME280;13851;43.434;28.338;2022-11-15T13:36:41;100073.53;;;13.62;100.00
26087;BME280;13851;43.434;28.338;2022-11-15T13:41:52;100213.06;;;14.19;100.00
26087;BME280;13851;43.434;28.338;2022-11-15T13:44:29;100249.69;;;14.13;100.00
26087;BME280;13851;43.434;28.338;2022-11-15T13:47:13;100046.72;;;12.77;100.00
26087;BME280;13851;43.434;28.338;2022-11-15T13:49:40;100203.63;;;13.70;100.00
26087;BME280;13851;43.434;28.338;2022-11-15T13:52:09;100102.53;;;13.21;100.00
26087;BME280;13851;43.434;28.338;2022-11-15T13:57:05;100221.41;;;14.04;100.00
26087;BME280;13851;43.434;28.338;2022-11-15T13:59:37;100230.38;;;14.13;100.00
26087;BME280;13851;43.434;28.338;2022-11-15T14:02:14;100206.03;;;13.95;100.00
26087;BME280;13851;43.434;28.338;2022-11-15T14:07:25;100217.72;;;14.18;100.00
26087;BME280;13851;43.434;28.338;2022-11-15T14:09:52;100207.41;;;14.27;100.00
26087;BME280;13851;43.434;28.338;2022-11-15T14:14:53;100209.31;;;14.26;100.00
26087;BME280;13851;43.434;28.338;2022-11-15T14:17:41;100190.88;;;14.05;100.00
26087;BME280;13851;43.434;28.338;2022-11-15T14:20:28;100201.56;;;14.15;100.00
26087;BME280;13851;43.434;28.338;2022-11-15T14:23:01;100186.09;;;13.93;100.00
26087;BME280;13851;43.434;28.338;2022-11-15T14:25:29;100219.59;;;13.96;100.00
26087;BME280;13851;43.434;28.338;2022-11-15T14:30:40;100157.25;;;13.89;100.00
26087;BME280;13851;43.434;28.338;2022-11-15T14:33:22;100177.63;;;13.94;100.00
26087;BME280;13851;43.434;28.338;2022-11-15T14:35:50;100161.50;;;13.91;100.00
26087;BME280;13851;43.434;28.338;2022-11-15T14:38:16;100171.75;;;13.97;100.00
26087;BME280;13851;43.434;28.338;2022-11-15T14:40:42;100127.28;;;13.58;100.00